Burns Pinion Ridge Reserve, California Weather observations

Data are for 10 minute period ending at time listed.
 Day   Time   Solar   Ave.   Ave.  Ave.  Vector  Max.   Baro.   Total    
  of    of     Rad.   Air    Rel.  Wind   Wind   Wind  Press.  Precip.   
Year   Day            Temp.  Hum.  Speed  Dir.   Gust                    
2016   (PST)  Kw/m2    F      %     mph   deg.    mph    mb.     in.     
-------------------------------------------------------------------------
  37   16:10   0.22   55.8    22    3.5    22    11.6   883.1    0.00 
  37   16:20   0.18   56.1    21    4.6     5    10.4   883.1    0.00 
  37   16:30   0.15   56.0    21    5.1    39    10.8   883.0    0.00 
  37   16:40   0.12   55.2    22    4.7    42     9.4   882.9    0.00 
  37   16:50   0.08   54.6    23    4.0    34     9.1   882.9    0.00 
  37   17:00   0.03   52.3    25    4.8    43     8.8   882.9    0.00 
  37   17:10   0.01   51.1    25    3.5    18     7.2   883.0    0.00 
  37   17:20   0.01   50.4    25    2.8    28     8.3   883.1    0.00 
  37   17:30   0.00   49.7    25    4.2     6     9.3   883.3    0.00 
  37   17:40   0.00   49.6    25    4.8   356    11.0   883.3    0.00 
  37   17:50   0.00   49.2    25    3.0    15     8.5   883.4    0.00 
  37   18:00   0.00   48.7    26    3.3    20     9.2   883.5    0.00 
  37   18:10   0.00   48.6    26    5.0     5    10.1   883.6    0.00 
  37   18:20   0.00   48.7    25    4.9     3    13.0   883.6    0.00 
  37   18:30   0.00   48.3    26    4.1    21     8.0   883.8    0.00 
  37   18:40   0.00   48.0    27    6.0    11    14.5   883.8    0.00 
  37   18:50   0.00   47.9    27    3.3    38     8.0   883.7    0.00 
  37   19:00   0.00   47.6    27    4.9    33    10.1   883.7    0.00 
  37   19:10   0.00   47.7    26    6.8    16    12.3   883.8    0.00 
  37   19:20   0.00   48.1    25    7.4    14    13.3   883.9    0.00 
  37   19:30   0.00   47.8    25    8.1     5    11.4   883.9    0.00 
  37   19:40   0.00   47.2    26    7.8     3    10.9   884.0    0.00 
  37   19:50   0.00   47.5    25    8.1     4    11.8   884.0    0.00 
  37   20:00   0.00   47.4    25    6.8     2    10.2   884.0    0.00 
  37   20:10   0.00   47.1    25    6.1   358     8.5   884.0    0.00 
  37   20:20   0.00   47.2    24    7.1   349     9.6   884.0    0.00 
  37   20:30   0.00   47.7    23    6.4   351     9.5   883.9    0.00 
  37   20:40   0.00   47.2    24    7.6   347    11.3   883.8    0.00 
  37   20:50   0.00   47.4    24    7.6   351    12.3   883.9    0.00 
  37   21:00   0.00   47.4    25    8.3   349    13.4   883.9    0.00 
  37   21:10   0.00   48.0    25    8.3   353    11.8   883.9    0.00 
  37   21:20   0.00   48.0    26    8.6   351    13.2   883.9    0.00 
  37   21:30   0.00   48.3    27    9.9   351    15.4   883.8    0.00 
  37   21:40   0.00   48.2    28    9.0   352    14.1   883.8    0.00 
  37   21:50   0.00   48.3    27    9.3   355    15.8   883.8    0.00 
  37   22:00   0.00   48.5    27    8.7   354    12.9   883.7    0.00 
  37   22:10   0.00   48.8    26    9.7   351    15.9   883.7    0.00 
  37   22:20   0.00   49.2    25    9.7   353    14.4   883.8    0.00 
  37   22:30   0.00   48.9    25    9.8   355    15.6   883.9    0.00 
  37   22:40   0.00   49.0    25   10.2   356    14.0   883.9    0.00 
  37   22:50   0.00   48.8    26   10.5   356    15.6   883.9    0.00 
  37   23:00   0.00   48.9    26   10.6   356    16.1   884.0    0.00 
  37   23:10   0.00   48.7    26   11.1   353    17.0   884.0    0.00 
  37   23:20   0.00   48.8    26   11.4   356    16.7   884.1    0.00 
  37   23:30   0.00   48.7    26   10.9   354    16.7   884.0    0.00 
  37   23:40   0.00   48.7    25   12.2   351    17.5   884.0    0.00 
  37   23:50   0.00   48.7    25   12.6   349    18.9   883.9    0.00 
  38    0:00   0.00   49.0    24   11.6   349    18.6   883.9    0.00 
  38    0:10   0.00   48.9    23   10.7   350    16.1   883.9    0.00 
  38    0:20   0.00   48.5    23   10.7   345    15.8   883.9    0.00 
  38    0:30   0.00   48.5    22   10.7   349    16.3   883.9    0.00 
  38    0:40   0.00   48.7    22   11.7   346    18.0   884.0    0.00 
  38    0:50   0.00   48.3    22   10.8   345    14.8   884.0    0.00 
  38    1:00   0.00   48.1    22   10.7   346    16.7   884.0    0.00 
  38    1:10   0.00   47.9    22    9.2   350    16.1   884.0    0.00 
  38    1:20   0.00   47.7    22    9.5   351    14.7   884.1    0.00 
  38    1:30   0.00   48.0    22    9.5   357    15.1   883.9    0.00 
  38    1:40   0.00   47.9    22    8.8   349    14.0   883.9    0.00 
  38    1:50   0.00   47.3    22   10.1   343    15.0   883.9    0.00 
  38    2:00   0.00   48.0    21   12.3   345    18.6   883.8    0.00 
  38    2:10   0.00   48.1    21   11.1   347    16.8   883.9    0.00 
  38    2:20   0.00   47.5    22   11.8   344    17.0   883.9    0.00 
  38    2:30   0.00   47.5    22   11.6   348    17.2   884.0    0.00 
  38    2:40   0.00   47.7    22   12.4   347    17.4   883.8    0.00 
  38    2:50   0.00   47.8    22   12.2   346    17.9   883.8    0.00 
  38    3:00   0.00   47.8    23   11.9   351    15.9   883.7    0.00 
  38    3:10   0.00   48.1    22   12.8   348    17.6   883.6    0.00 
  38    3:20   0.00   47.6    23   12.1   345    18.9   883.6    0.00 
  38    3:30   0.00   47.3    23   11.4   345    17.1   883.6    0.00 
  38    3:40   0.00   47.6    24   12.0   346    17.1   883.5    0.00 
  38    3:50   0.00   47.6    24   11.6   346    17.0   883.5    0.00 
  38    4:00   0.00   47.8    24   11.4   343    18.6   883.5    0.00 
  38    4:10   0.00   47.4    25   11.1   347    17.0   883.5    0.00 
  38    4:20   0.00   47.5    26   11.4   350    19.9   883.4    0.00 
  38    4:30   0.00   48.2    25   12.2   350    19.2   883.4    0.00 
  38    4:40   0.00   48.1    25   12.4   350    18.9   883.4    0.00 
  38    4:50   0.00   48.4    23   12.4   350    19.2   883.3    0.00 
  38    5:00   0.00   48.8    22   13.1   350    18.5   883.3    0.00 
  38    5:10   0.00   48.5    22   11.4   346    16.4   883.2    0.00 
  38    5:20   0.00   48.1    22   10.3   346    15.5   883.3    0.00 
  38    5:30   0.00   48.3    22   10.1   350    16.4   883.3    0.00 
  38    5:40   0.00   48.6    22    9.9   359    14.8   883.3    0.00 
  38    5:50   0.00   47.9    22    9.5     3    13.5   883.4    0.00 
  38    6:00   0.00   47.1    24    9.8   355    14.8   883.4    0.00 
  38    6:10   0.00   47.3    23   10.9   349    16.7   883.4    0.00 
  38    6:20   0.00   47.8    23   12.1   351    17.1   883.5    0.00 
  38    6:30   0.00   47.9    24   12.0   358    19.1   883.6    0.00 
  38    6:40   0.00   48.3    22   13.7   356    19.2   883.6    0.00 
  38    6:50   0.01   47.8    23   13.0   346    19.4   883.7    0.00 
  38    7:00   0.01   47.4    24   12.9   343    17.6   883.7    0.00 
  38    7:10   0.01   48.4    24   12.9   345    20.2   883.8    0.00 
  38    7:20   0.04   48.6    23   12.3   350    17.6   883.9    0.00 
  38    7:30   0.11   49.9    22   12.6   347    20.0   883.9    0.00 
  38    7:40   0.15   51.1    22   12.1   348    20.2   883.9    0.00 
  38    7:50   0.18   51.9    22   12.6   344    18.4   883.9    0.00 
  38    8:00   0.22   53.3    21   10.9   348    15.6   883.9    0.00 
  38    8:10   0.25   54.7    20   11.4   357    18.6   884.0    0.00 
  38    8:20   0.28   54.8    20   14.5   358    20.0   883.9    0.00 
  38    8:30   0.32   55.0    20   15.2   359    22.4   883.9    0.00 
  38    8:40   0.35   55.2    20   16.7   360    23.2   884.0    0.00 
  38    8:50   0.38   55.3    20   17.3   360    23.4   884.0    0.00 
  38    9:00   0.41   55.7    19   16.6     0    23.7   884.1    0.00 
  38    9:10   0.44   55.5    20   18.1   359    26.6   884.2    0.00 
  38    9:20   0.47   55.6    20   17.4     3    25.5   884.2    0.00 
  38    9:30   0.50   55.7    20   18.2   359    27.1   884.3    0.00 
  38    9:40   0.52   55.7    19   19.9     0    30.2   884.3    0.00 
  38    9:50   0.55   55.8    19   19.2     1    26.4   884.4    0.00 
  38   10:00   0.57   55.9    20   19.5   358    27.9   884.5    0.00 
  38   10:10   0.59   56.1    20   18.4   358    26.5   884.6    0.00 
  38   10:20   0.61   56.4    20   16.4   359    24.8   884.7    0.00 
  38   10:30   0.63   57.0    20   16.0     3    25.0   884.7    0.00 
  38   10:40   0.65   56.9    19   15.8     2    23.9   884.7    0.00 
  38   10:50   0.66   57.5    19   16.9     0    25.4   884.5    0.00 
  38   11:00   0.68   58.4    18   17.8   358    26.5   884.5    0.00 
  38   11:10   0.69   58.6    17   18.9     2    26.3   884.5    0.00 
  38   11:20   0.69   59.3    17   16.8     1    23.8   884.5    0.00 
  38   11:30   0.71   59.7    17   16.5   359    23.2   884.5    0.00 
  38   11:40   0.71   59.7    17   17.1     2    23.9   884.4    0.00 
  38   11:50   0.71   59.4    17   16.9     1    24.9   884.4    0.00 
  38   12:00   0.70   60.1    17   15.8     1    22.2   884.3    0.00 
  38   12:10   0.72   60.2    17   16.1   360    24.9   884.1    0.00 
  38   12:20   0.71   60.8    16   15.6   358    23.7   884.0    0.00 
  38   12:30   0.71   61.1    16   16.2   359    22.4   884.0    0.00 
  38   12:40   0.71   61.1    16   15.2   355    23.8   883.8    0.00 
  38   12:50   0.70   61.8    16   15.5     1    21.8   883.7    0.00 
  38   13:00   0.69   61.8    15   15.4   358    23.2   883.6    0.00 
  38   13:10   0.68   62.0    15   14.3   354    22.2   883.6    0.00 
  38   13:20   0.67   62.8    15   14.1   358    21.3   883.4    0.00 
  38   13:30   0.65   62.9    15   15.4     3    22.5   883.4    0.00 
  38   13:40   0.64   63.0    15   15.4   357    22.4   883.4    0.00 
  38   13:50   0.62   62.5    15   16.9   360    24.3   883.5    0.00 
  38   14:00   0.60   62.4    15   15.5     1    23.8   883.4    0.00 
  38   14:10   0.58   62.5    14   18.2     1    24.8   883.4    0.00 
  38   14:20   0.55   62.1    15   16.7   357    25.4   883.5    0.00 
  38   14:30   0.53   61.9    15   17.2   360    25.5   883.5    0.00 
  38   14:40   0.50   61.7    15   16.2   354    25.9   883.3    0.00 
  38   14:50   0.48   61.6    15   16.8   352    24.4   883.2    0.00 
  38   15:00   0.45   61.7    15   16.0   357    26.0   883.2    0.00 
  38   15:10   0.42   61.5    15   15.9   358    25.1   883.3    0.00 
  38   15:20   0.39   61.4    15   16.6   358    24.6   883.1    0.00 
  38   15:30   0.35   61.3    15   17.3   357    25.6   883.1    0.00 
  38   15:40   0.32   61.2    15   14.9   352    24.3   883.0    0.00 
  38   15:50   0.29   60.8    15   16.5   353    24.8   883.0    0.00 
  38   16:00   0.26   60.3    15   13.6   356    20.5   883.0    0.00 

Return to Burns Pinion Ridge Reserve graphs page.


Western Regional Climate Center,wrcc@dri.edu